sensor_id;sensor_type;location;lat;lon;timestamp;temperature;humidity
3172;DHT22;1597;51.572;6.992;2023-10-08T00:00:23;18.40;93.70
3172;DHT22;1597;51.572;6.992;2023-10-08T00:03:09;18.40;93.30
3172;DHT22;1597;51.572;6.992;2023-10-08T00:05:39;18.30;93.60
3172;DHT22;1597;51.572;6.992;2023-10-08T00:08:06;18.30;93.80
3172;DHT22;1597;51.572;6.992;2023-10-08T00:10:38;18.30;93.80
3172;DHT22;1597;51.572;6.992;2023-10-08T00:13:09;18.30;93.80
3172;DHT22;1597;51.572;6.992;2023-10-08T00:15:36;18.30;93.80
3172;DHT22;1597;51.572;6.992;2023-10-08T00:18:05;18.30;94.10
3172;DHT22;1597;51.572;6.992;2023-10-08T00:20:40;18.30;94.40
3172;DHT22;1597;51.572;6.992;2023-10-08T00:23:29;18.20;94.60
3172;DHT22;1597;51.572;6.992;2023-10-08T00:25:55;18.20;94.40
3172;DHT22;1597;51.572;6.992;2023-10-08T00:28:23;18.20;94.50
3172;DHT22;1597;51.572;6.992;2023-10-08T00:30:50;18.20;94.50
3172;DHT22;1597;51.572;6.992;2023-10-08T00:33:15;18.20;94.50
3172;DHT22;1597;51.572;6.992;2023-10-08T00:35:42;18.20;94.60
3172;DHT22;1597;51.572;6.992;2023-10-08T00:38:08;18.20;95.00
3172;DHT22;1597;51.572;6.992;2023-10-08T00:40:41;18.20;95.90
3172;DHT22;1597;51.572;6.992;2023-10-08T00:43:28;18.20;95.70
3172;DHT22;1597;51.572;6.992;2023-10-08T00:45:56;18.10;96.00
3172;DHT22;1597;51.572;6.992;2023-10-08T00:48:27;18.10;95.70
3172;DHT22;1597;51.572;6.992;2023-10-08T00:51:01;18.10;95.90
3172;DHT22;1597;51.572;6.992;2023-10-08T00:54:03;18.10;95.90
3172;DHT22;1597;51.572;6.992;2023-10-08T00:56:36;18.00;96.20
3172;DHT22;1597;51.572;6.992;2023-10-08T00:59:21;18.00;95.80
3172;DHT22;1597;51.572;6.992;2023-10-08T01:01:48;18.00;95.70
3172;DHT22;1597;51.572;6.992;2023-10-08T01:04:18;18.00;95.80
3172;DHT22;1597;51.572;6.992;2023-10-08T01:06:53;17.90;95.80
3172;DHT22;1597;51.572;6.992;2023-10-08T01:09:24;17.90;95.80
3172;DHT22;1597;51.572;6.992;2023-10-08T01:14:44;17.90;96.00
3172;DHT22;1597;51.572;6.992;2023-10-08T01:17:12;17.90;96.10
3172;DHT22;1597;51.572;6.992;2023-10-08T01:19:50;17.90;96.00
3172;DHT22;1597;51.572;6.992;2023-10-08T01:22:21;17.90;95.90
3172;DHT22;1597;51.572;6.992;2023-10-08T01:24:51;17.80;96.00
3172;DHT22;1597;51.572;6.992;2023-10-08T01:27:20;17.80;96.30
3172;DHT22;1597;51.572;6.992;2023-10-08T01:29:50;17.80;96.30
3172;DHT22;1597;51.572;6.992;2023-10-08T01:32:21;17.80;96.90
3172;DHT22;1597;51.572;6.992;2023-10-08T01:34:48;17.80;96.50
3172;DHT22;1597;51.572;6.992;2023-10-08T01:37:15;17.80;96.50
3172;DHT22;1597;51.572;6.992;2023-10-08T01:39:48;17.80;96.30
3172;DHT22;1597;51.572;6.992;2023-10-08T01:42:16;17.80;96.30
3172;DHT22;1597;51.572;6.992;2023-10-08T01:44:48;17.80;96.10
3172;DHT22;1597;51.572;6.992;2023-10-08T01:47:16;17.80;96.50
3172;DHT22;1597;51.572;6.992;2023-10-08T01:49:43;17.80;96.40
3172;DHT22;1597;51.572;6.992;2023-10-08T01:52:10;17.80;96.30
3172;DHT22;1597;51.572;6.992;2023-10-08T01:54:49;17.80;96.30
3172;DHT22;1597;51.572;6.992;2023-10-08T01:57:15;17.80;96.70
3172;DHT22;1597;51.572;6.992;2023-10-08T01:59:43;17.80;96.70
3172;DHT22;1597;51.572;6.992;2023-10-08T02:02:09;17.80;96.80
3172;DHT22;1597;51.572;6.992;2023-10-08T02:04:36;17.80;96.90
3172;DHT22;1597;51.572;6.992;2023-10-08T02:07:05;17.80;96.70
3172;DHT22;1597;51.572;6.992;2023-10-08T02:09:36;17.80;96.90
3172;DHT22;1597;51.572;6.992;2023-10-08T02:12:03;17.70;97.30
3172;DHT22;1597;51.572;6.992;2023-10-08T02:14:29;17.70;97.50
3172;DHT22;1597;51.572;6.992;2023-10-08T02:16:58;17.80;97.80
3172;DHT22;1597;51.572;6.992;2023-10-08T02:19:29;17.70;97.20
3172;DHT22;1597;51.572;6.992;2023-10-08T02:21:55;17.70;97.50
3172;DHT22;1597;51.572;6.992;2023-10-08T02:24:23;17.70;97.40
3172;DHT22;1597;51.572;6.992;2023-10-08T02:26:54;17.70;97.70
3172;DHT22;1597;51.572;6.992;2023-10-08T02:29:26;17.70;97.30
3172;DHT22;1597;51.572;6.992;2023-10-08T02:31:53;17.70;97.00
3172;DHT22;1597;51.572;6.992;2023-10-08T02:34:19;17.60;97.60
3172;DHT22;1597;51.572;6.992;2023-10-08T02:36:45;17.60;97.80
3172;DHT22;1597;51.572;6.992;2023-10-08T02:39:14;17.60;98.50
3172;DHT22;1597;51.572;6.992;2023-10-08T02:41:53;17.70;99.20
3172;DHT22;1597;51.572;6.992;2023-10-08T02:44:24;17.60;99.20
3172;DHT22;1597;51.572;6.992;2023-10-08T02:46:50;17.60;99.60
3172;DHT22;1597;51.572;6.992;2023-10-08T02:49:19;17.60;99.90
3172;DHT22;1597;51.572;6.992;2023-10-08T02:51:47;17.60;99.90
3172;DHT22;1597;51.572;6.992;2023-10-08T02:54:16;17.60;99.90
3172;DHT22;1597;51.572;6.992;2023-10-08T02:56:52;17.60;99.90
3172;DHT22;1597;51.572;6.992;2023-10-08T02:59:23;17.60;99.90
3172;DHT22;1597;51.572;6.992;2023-10-08T03:01:50;17.50;99.90
3172;DHT22;1597;51.572;6.992;2023-10-08T03:04:22;17.50;99.90
3172;DHT22;1597;51.572;6.992;2023-10-08T03:06:50;17.50;99.90
3172;DHT22;1597;51.572;6.992;2023-10-08T03:09:20;17.50;99.90
3172;DHT22;1597;51.572;6.992;2023-10-08T03:11:49;17.50;99.90
3172;DHT22;1597;51.572;6.992;2023-10-08T03:14:16;17.50;99.90
3172;DHT22;1597;51.572;6.992;2023-10-08T03:16:51;17.40;99.90
3172;DHT22;1597;51.572;6.992;2023-10-08T03:19:20;17.40;99.90
3172;DHT22;1597;51.572;6.992;2023-10-08T03:21:48;17.40;99.90
3172;DHT22;1597;51.572;6.992;2023-10-08T03:24:19;17.40;99.90
3172;DHT22;1597;51.572;6.992;2023-10-08T03:26:59;17.40;99.90
3172;DHT22;1597;51.572;6.992;2023-10-08T03:29:37;17.40;99.90
3172;DHT22;1597;51.572;6.992;2023-10-08T03:32:11;17.40;99.90
3172;DHT22;1597;51.572;6.992;2023-10-08T03:34:49;17.40;99.90
3172;DHT22;1597;51.572;6.992;2023-10-08T03:37:21;17.40;99.90
3172;DHT22;1597;51.572;6.992;2023-10-08T03:39:55;17.40;99.90
3172;DHT22;1597;51.572;6.992;2023-10-08T03:42:33;17.40;99.90
3172;DHT22;1597;51.572;6.992;2023-10-08T03:45:07;17.40;99.90
3172;DHT22;1597;51.572;6.992;2023-10-08T03:47:39;17.30;99.90
3172;DHT22;1597;51.572;6.992;2023-10-08T03:50:07;17.30;99.80
3172;DHT22;1597;51.572;6.992;2023-10-08T03:52:38;17.30;99.30
3172;DHT22;1597;51.572;6.992;2023-10-08T03:55:07;17.30;99.50
3172;DHT22;1597;51.572;6.992;2023-10-08T03:57:47;17.20;99.60
3172;DHT22;1597;51.572;6.992;2023-10-08T04:00:22;17.20;99.60
3172;DHT22;1597;51.572;6.992;2023-10-08T04:02:55;17.20;99.50
3172;DHT22;1597;51.572;6.992;2023-10-08T04:05:22;17.10;99.90
3172;DHT22;1597;51.572;6.992;2023-10-08T04:07:59;17.20;99.70
3172;DHT22;1597;51.572;6.992;2023-10-08T04:10:27;17.20;99.30
3172;DHT22;1597;51.572;6.992;2023-10-08T04:13:09;17.10;99.60
3172;DHT22;1597;51.572;6.992;2023-10-08T04:15:38;17.10;99.80
3172;DHT22;1597;51.572;6.992;2023-10-08T04:18:11;17.10;99.50
3172;DHT22;1597;51.572;6.992;2023-10-08T04:20:38;17.10;99.50
3172;DHT22;1597;51.572;6.992;2023-10-08T04:23:06;17.10;99.20
3172;DHT22;1597;51.572;6.992;2023-10-08T04:25:43;17.10;99.60
3172;DHT22;1597;51.572;6.992;2023-10-08T04:28:10;17.10;99.90
3172;DHT22;1597;51.572;6.992;2023-10-08T04:30:42;17.10;99.90
3172;DHT22;1597;51.572;6.992;2023-10-08T04:33:10;17.10;99.90
3172;DHT22;1597;51.572;6.992;2023-10-08T04:35:44;17.00;99.70
3172;DHT22;1597;51.572;6.992;2023-10-08T04:38:17;17.00;99.80
3172;DHT22;1597;51.572;6.992;2023-10-08T04:40:45;17.00;99.90
3172;DHT22;1597;51.572;6.992;2023-10-08T04:43:15;17.00;99.90
3172;DHT22;1597;51.572;6.992;2023-10-08T04:45:51;16.90;99.90
3172;DHT22;1597;51.572;6.992;2023-10-08T04:48:17;16.90;99.90
3172;DHT22;1597;51.572;6.992;2023-10-08T04:50:49;16.90;99.70
3172;DHT22;1597;51.572;6.992;2023-10-08T04:53:34;16.90;99.90
3172;DHT22;1597;51.572;6.992;2023-10-08T04:56:07;16.90;99.90
3172;DHT22;1597;51.572;6.992;2023-10-08T04:58:39;16.80;99.90
3172;DHT22;1597;51.572;6.992;2023-10-08T05:01:09;16.80;99.90
3172;DHT22;1597;51.572;6.992;2023-10-08T05:03:48;16.80;99.90
3172;DHT22;1597;51.572;6.992;2023-10-08T05:06:28;16.80;99.90
3172;DHT22;1597;51.572;6.992;2023-10-08T05:09:11;16.70;99.90
3172;DHT22;1597;51.572;6.992;2023-10-08T05:11:49;16.70;99.90
3172;DHT22;1597;51.572;6.992;2023-10-08T05:14:24;16.70;99.90
3172;DHT22;1597;51.572;6.992;2023-10-08T05:17:08;16.70;99.90
3172;DHT22;1597;51.572;6.992;2023-10-08T05:19:41;16.70;99.90
3172;DHT22;1597;51.572;6.992;2023-10-08T05:22:11;16.70;99.90
3172;DHT22;1597;51.572;6.992;2023-10-08T05:24:48;16.70;99.90
3172;DHT22;1597;51.572;6.992;2023-10-08T05:27:33;16.70;99.90
3172;DHT22;1597;51.572;6.992;2023-10-08T05:30:16;16.70;99.90
3172;DHT22;1597;51.572;6.992;2023-10-08T05:33:06;16.70;99.90
3172;DHT22;1597;51.572;6.992;2023-10-08T05:35:39;16.70;99.90
3172;DHT22;1597;51.572;6.992;2023-10-08T05:38:06;16.70;99.90
3172;DHT22;1597;51.572;6.992;2023-10-08T05:40:53;16.70;99.90
3172;DHT22;1597;51.572;6.992;2023-10-08T05:43:37;16.70;99.90
3172;DHT22;1597;51.572;6.992;2023-10-08T05:46:14;16.60;99.90
3172;DHT22;1597;51.572;6.992;2023-10-08T05:48:52;16.60;99.90
3172;DHT22;1597;51.572;6.992;2023-10-08T05:51:32;16.60;99.90
3172;DHT22;1597;51.572;6.992;2023-10-08T05:54:22;16.60;99.90
3172;DHT22;1597;51.572;6.992;2023-10-08T05:57:05;16.60;99.90
3172;DHT22;1597;51.572;6.992;2023-10-08T05:59:40;16.60;99.90
3172;DHT22;1597;51.572;6.992;2023-10-08T06:02:25;16.50;99.90
3172;DHT22;1597;51.572;6.992;2023-10-08T06:05:05;16.50;99.90
3172;DHT22;1597;51.572;6.992;2023-10-08T06:07:44;16.50;99.90
3172;DHT22;1597;51.572;6.992;2023-10-08T06:10:14;16.50;99.90
3172;DHT22;1597;51.572;6.992;2023-10-08T06:13:06;16.50;99.90
3172;DHT22;1597;51.572;6.992;2023-10-08T06:15:46;16.50;99.90
3172;DHT22;1597;51.572;6.992;2023-10-08T06:18:26;16.50;99.90
3172;DHT22;1597;51.572;6.992;2023-10-08T06:21:05;16.50;99.90
3172;DHT22;1597;51.572;6.992;2023-10-08T06:23:37;16.60;99.90
3172;DHT22;1597;51.572;6.992;2023-10-08T06:26:04;16.60;99.90
3172;DHT22;1597;51.572;6.992;2023-10-08T06:28:32;16.50;99.90
3172;DHT22;1597;51.572;6.992;2023-10-08T06:31:02;16.50;99.90
3172;DHT22;1597;51.572;6.992;2023-10-08T06:33:40;16.50;99.90
3172;DHT22;1597;51.572;6.992;2023-10-08T06:36:06;16.50;99.90
3172;DHT22;1597;51.572;6.992;2023-10-08T06:38:46;16.50;99.90
3172;DHT22;1597;51.572;6.992;2023-10-08T06:41:15;16.50;99.90
3172;DHT22;1597;51.572;6.992;2023-10-08T06:43:46;16.50;99.90
3172;DHT22;1597;51.572;6.992;2023-10-08T06:46:19;16.60;99.90
3172;DHT22;1597;51.572;6.992;2023-10-08T06:48:47;16.50;99.90
3172;DHT22;1597;51.572;6.992;2023-10-08T06:51:15;16.50;99.90
3172;DHT22;1597;51.572;6.992;2023-10-08T06:53:45;16.40;99.90
3172;DHT22;1597;51.572;6.992;2023-10-08T06:56:12;16.40;99.90
3172;DHT22;1597;51.572;6.992;2023-10-08T06:58:42;16.40;99.90
3172;DHT22;1597;51.572;6.992;2023-10-08T07:01:16;16.40;99.90
3172;DHT22;1597;51.572;6.992;2023-10-08T07:03:47;16.50;99.90
3172;DHT22;1597;51.572;6.992;2023-10-08T07:06:17;16.40;99.90
3172;DHT22;1597;51.572;6.992;2023-10-08T07:08:58;16.40;99.90
3172;DHT22;1597;51.572;6.992;2023-10-08T07:11:26;16.50;99.90
3172;DHT22;1597;51.572;6.992;2023-10-08T07:13:54;16.50;99.90
3172;DHT22;1597;51.572;6.992;2023-10-08T07:16:21;16.50;99.90
3172;DHT22;1597;51.572;6.992;2023-10-08T07:18:48;16.50;99.90
3172;DHT22;1597;51.572;6.992;2023-10-08T07:21:17;16.50;99.90
3172;DHT22;1597;51.572;6.992;2023-10-08T07:23:43;16.40;99.90
3172;DHT22;1597;51.572;6.992;2023-10-08T07:26:22;16.40;99.90
3172;DHT22;1597;51.572;6.992;2023-10-08T07:28:52;16.50;99.90
3172;DHT22;1597;51.572;6.992;2023-10-08T07:31:22;16.50;99.90
3172;DHT22;1597;51.572;6.992;2023-10-08T07:33:51;16.50;99.90
3172;DHT22;1597;51.572;6.992;2023-10-08T07:36:28;16.50;99.90
3172;DHT22;1597;51.572;6.992;2023-10-08T07:38:56;16.40;99.90
3172;DHT22;1597;51.572;6.992;2023-10-08T07:41:22;16.40;99.90
3172;DHT22;1597;51.572;6.992;2023-10-08T07:43:49;16.30;99.90
3172;DHT22;1597;51.572;6.992;2023-10-08T07:46:25;16.20;99.90
3172;DHT22;1597;51.572;6.992;2023-10-08T07:48:52;16.10;99.90
3172;DHT22;1597;51.572;6.992;2023-10-08T07:51:18;16.10;99.90
3172;DHT22;1597;51.572;6.992;2023-10-08T07:53:51;16.00;99.90
3172;DHT22;1597;51.572;6.992;2023-10-08T07:56:24;15.90;99.90
3172;DHT22;1597;51.572;6.992;2023-10-08T07:58:52;15.90;99.90
3172;DHT22;1597;51.572;6.992;2023-10-08T08:01:22;15.90;99.90
3172;DHT22;1597;51.572;6.992;2023-10-08T08:03:50;15.80;99.90
3172;DHT22;1597;51.572;6.992;2023-10-08T08:06:17;15.80;99.90
3172;DHT22;1597;51.572;6.992;2023-10-08T08:08:42;15.70;99.90
3172;DHT22;1597;51.572;6.992;2023-10-08T08:11:10;15.70;99.90
3172;DHT22;1597;51.572;6.992;2023-10-08T08:13:42;15.70;99.90
3172;DHT22;1597;51.572;6.992;2023-10-08T08:16:11;15.70;99.90
3172;DHT22;1597;51.572;6.992;2023-10-08T08:18:47;15.70;99.90
3172;DHT22;1597;51.572;6.992;2023-10-08T08:21:15;15.60;99.90
3172;DHT22;1597;51.572;6.992;2023-10-08T08:23:48;15.60;99.90
3172;DHT22;1597;51.572;6.992;2023-10-08T08:26:15;15.60;99.90
3172;DHT22;1597;51.572;6.992;2023-10-08T08:28:56;15.60;99.90
3172;DHT22;1597;51.572;6.992;2023-10-08T08:31:25;15.60;99.90
3172;DHT22;1597;51.572;6.992;2023-10-08T08:33:52;15.60;99.90
3172;DHT22;1597;51.572;6.992;2023-10-08T08:36:19;15.60;99.90
3172;DHT22;1597;51.572;6.992;2023-10-08T08:38:47;15.60;99.90
3172;DHT22;1597;51.572;6.992;2023-10-08T08:41:13;15.60;99.90
3172;DHT22;1597;51.572;6.992;2023-10-08T08:43:47;15.60;99.90
3172;DHT22;1597;51.572;6.992;2023-10-08T08:46:14;15.60;99.90
3172;DHT22;1597;51.572;6.992;2023-10-08T08:48:42;15.60;99.90
3172;DHT22;1597;51.572;6.992;2023-10-08T08:51:12;15.60;99.90
3172;DHT22;1597;51.572;6.992;2023-10-08T08:53:39;15.50;99.90
3172;DHT22;1597;51.572;6.992;2023-10-08T08:56:07;15.50;99.90
3172;DHT22;1597;51.572;6.992;2023-10-08T08:58:35;15.50;99.90
3172;DHT22;1597;51.572;6.992;2023-10-08T09:01:05;15.50;99.90
3172;DHT22;1597;51.572;6.992;2023-10-08T09:03:33;15.50;99.90
3172;DHT22;1597;51.572;6.992;2023-10-08T09:06:00;15.50;99.90
3172;DHT22;1597;51.572;6.992;2023-10-08T09:08:34;15.50;99.90
3172;DHT22;1597;51.572;6.992;2023-10-08T09:11:01;15.50;99.90
3172;DHT22;1597;51.572;6.992;2023-10-08T09:13:30;15.50;99.90
3172;DHT22;1597;51.572;6.992;2023-10-08T09:16:06;15.50;99.90
3172;DHT22;1597;51.572;6.992;2023-10-08T09:18:34;15.50;99.90
3172;DHT22;1597;51.572;6.992;2023-10-08T09:21:18;15.40;99.90
3172;DHT22;1597;51.572;6.992;2023-10-08T09:23:52;15.40;99.90
3172;DHT22;1597;51.572;6.992;2023-10-08T09:26:25;15.40;99.90
3172;DHT22;1597;51.572;6.992;2023-10-08T09:28:54;15.40;99.90
3172;DHT22;1597;51.572;6.992;2023-10-08T09:31:23;15.40;99.90
3172;DHT22;1597;51.572;6.992;2023-10-08T09:33:56;15.40;99.90
3172;DHT22;1597;51.572;6.992;2023-10-08T09:36:22;15.40;99.90
3172;DHT22;1597;51.572;6.992;2023-10-08T09:39:00;15.40;99.90
3172;DHT22;1597;51.572;6.992;2023-10-08T09:41:31;15.40;99.90
3172;DHT22;1597;51.572;6.992;2023-10-08T09:44:00;15.40;99.90
3172;DHT22;1597;51.572;6.992;2023-10-08T09:46:31;15.40;99.90
3172;DHT22;1597;51.572;6.992;2023-10-08T09:49:02;15.30;99.90
3172;DHT22;1597;51.572;6.992;2023-10-08T09:51:33;15.30;99.90
3172;DHT22;1597;51.572;6.992;2023-10-08T09:54:10;15.20;99.90
3172;DHT22;1597;51.572;6.992;2023-10-08T09:56:40;15.20;99.90
3172;DHT22;1597;51.572;6.992;2023-10-08T09:59:07;15.20;99.90
3172;DHT22;1597;51.572;6.992;2023-10-08T10:01:37;15.30;99.90
3172;DHT22;1597;51.572;6.992;2023-10-08T10:04:22;15.30;99.90
3172;DHT22;1597;51.572;6.992;2023-10-08T10:06:50;15.30;99.90
3172;DHT22;1597;51.572;6.992;2023-10-08T10:09:23;15.40;99.90
3172;DHT22;1597;51.572;6.992;2023-10-08T10:11:51;15.40;99.90
3172;DHT22;1597;51.572;6.992;2023-10-08T10:14:24;15.40;99.90
3172;DHT22;1597;51.572;6.992;2023-10-08T10:17:15;15.30;99.90
3172;DHT22;1597;51.572;6.992;2023-10-08T10:20:11;15.30;99.90
3172;DHT22;1597;51.572;6.992;2023-10-08T10:22:39;15.30;99.90
3172;DHT22;1597;51.572;6.992;2023-10-08T10:25:07;15.30;99.90
3172;DHT22;1597;51.572;6.992;2023-10-08T10:30:19;15.30;99.90
3172;DHT22;1597;51.572;6.992;2023-10-08T10:32:45;15.30;99.90
3172;DHT22;1597;51.572;6.992;2023-10-08T10:35:14;15.40;99.90
3172;DHT22;1597;51.572;6.992;2023-10-08T10:37:43;15.40;99.90
3172;DHT22;1597;51.572;6.992;2023-10-08T10:40:22;15.30;98.80
3172;DHT22;1597;51.572;6.992;2023-10-08T10:42:58;15.20;99.00
3172;DHT22;1597;51.572;6.992;2023-10-08T10:45:28;15.20;99.90
3172;DHT22;1597;51.572;6.992;2023-10-08T10:48:20;15.20;99.90
3172;DHT22;1597;51.572;6.992;2023-10-08T10:50:47;15.20;99.90
3172;DHT22;1597;51.572;6.992;2023-10-08T10:53:40;15.30;99.90
3172;DHT22;1597;51.572;6.992;2023-10-08T10:56:32;15.20;99.10
3172;DHT22;1597;51.572;6.992;2023-10-08T10:59:05;15.30;99.90
3172;DHT22;1597;51.572;6.992;2023-10-08T11:01:48;15.40;99.90
3172;DHT22;1597;51.572;6.992;2023-10-08T11:04:33;15.50;99.00
3172;DHT22;1597;51.572;6.992;2023-10-08T11:07:11;15.50;98.50
3172;DHT22;1597;51.572;6.992;2023-10-08T11:09:37;15.60;97.80
3172;DHT22;1597;51.572;6.992;2023-10-08T11:12:06;15.60;97.40
3172;DHT22;1597;51.572;6.992;2023-10-08T11:14:47;15.60;97.10
3172;DHT22;1597;51.572;6.992;2023-10-08T11:17:15;15.70;97.90
3172;DHT22;1597;51.572;6.992;2023-10-08T11:19:44;15.70;96.90
3172;DHT22;1597;51.572;6.992;2023-10-08T11:22:13;15.70;97.00
3172;DHT22;1597;51.572;6.992;2023-10-08T11:24:45;15.70;97.20
3172;DHT22;1597;51.572;6.992;2023-10-08T11:27:18;15.80;97.10
3172;DHT22;1597;51.572;6.992;2023-10-08T11:29:55;15.80;96.80
3172;DHT22;1597;51.572;6.992;2023-10-08T11:32:26;15.80;97.00
3172;DHT22;1597;51.572;6.992;2023-10-08T11:34:59;15.80;97.40
3172;DHT22;1597;51.572;6.992;2023-10-08T11:37:30;15.80;97.00
3172;DHT22;1597;51.572;6.992;2023-10-08T11:39:59;15.90;96.80
3172;DHT22;1597;51.572;6.992;2023-10-08T11:42:34;16.00;94.80
3172;DHT22;1597;51.572;6.992;2023-10-08T11:45:00;16.00;94.60
3172;DHT22;1597;51.572;6.992;2023-10-08T11:47:47;16.00;93.70
3172;DHT22;1597;51.572;6.992;2023-10-08T11:50:44;16.00;93.20
3172;DHT22;1597;51.572;6.992;2023-10-08T11:53:10;16.00;93.30
3172;DHT22;1597;51.572;6.992;2023-10-08T11:55:40;16.00;92.70
3172;DHT22;1597;51.572;6.992;2023-10-08T11:58:09;16.10;92.70
3172;DHT22;1597;51.572;6.992;2023-10-08T12:00:40;16.10;90.80
3172;DHT22;1597;51.572;6.992;2023-10-08T12:03:13;16.10;91.70
3172;DHT22;1597;51.572;6.992;2023-10-08T12:05:50;16.10;90.00
3172;DHT22;1597;51.572;6.992;2023-10-08T12:08:24;16.10;87.90
3172;DHT22;1597;51.572;6.992;2023-10-08T12:10:53;16.20;90.90
3172;DHT22;1597;51.572;6.992;2023-10-08T12:13:25;16.20;85.30
3172;DHT22;1597;51.572;6.992;2023-10-08T12:15:54;16.20;86.60
3172;DHT22;1597;51.572;6.992;2023-10-08T12:18:41;16.30;78.60
3172;DHT22;1597;51.572;6.992;2023-10-08T12:21:09;16.30;79.50
3172;DHT22;1597;51.572;6.992;2023-10-08T12:23:41;16.20;75.60
3172;DHT22;1597;51.572;6.992;2023-10-08T12:26:09;16.20;81.10
3172;DHT22;1597;51.572;6.992;2023-10-08T12:28:36;16.20;80.00
3172;DHT22;1597;51.572;6.992;2023-10-08T12:31:02;16.20;78.00
3172;DHT22;1597;51.572;6.992;2023-10-08T12:33:29;16.20;80.80
3172;DHT22;1597;51.572;6.992;2023-10-08T12:35:57;16.20;80.30
3172;DHT22;1597;51.572;6.992;2023-10-08T12:38:24;16.20;79.50
3172;DHT22;1597;51.572;6.992;2023-10-08T12:40:53;16.30;78.20
3172;DHT22;1597;51.572;6.992;2023-10-08T12:43:20;16.30;72.40
3172;DHT22;1597;51.572;6.992;2023-10-08T12:45:50;16.30;77.70
3172;DHT22;1597;51.572;6.992;2023-10-08T12:48:25;16.40;77.70
3172;DHT22;1597;51.572;6.992;2023-10-08T12:50:54;16.50;75.00
3172;DHT22;1597;51.572;6.992;2023-10-08T12:53:28;16.50;73.30
3172;DHT22;1597;51.572;6.992;2023-10-08T12:56:08;16.50;73.70
3172;DHT22;1597;51.572;6.992;2023-10-08T12:58:41;16.60;75.40
3172;DHT22;1597;51.572;6.992;2023-10-08T13:01:16;16.60;73.40
3172;DHT22;1597;51.572;6.992;2023-10-08T13:03:45;16.60;77.30
3172;DHT22;1597;51.572;6.992;2023-10-08T13:06:17;16.60;66.50
3172;DHT22;1597;51.572;6.992;2023-10-08T13:08:59;16.60;72.90
3172;DHT22;1597;51.572;6.992;2023-10-08T13:11:31;16.60;74.20
3172;DHT22;1597;51.572;6.992;2023-10-08T13:13:59;16.60;75.70
3172;DHT22;1597;51.572;6.992;2023-10-08T13:16:28;16.70;77.40
3172;DHT22;1597;51.572;6.992;2023-10-08T13:18:58;16.70;73.60
3172;DHT22;1597;51.572;6.992;2023-10-08T13:21:25;16.70;76.50
3172;DHT22;1597;51.572;6.992;2023-10-08T13:23:54;16.70;75.80
3172;DHT22;1597;51.572;6.992;2023-10-08T13:26:26;16.70;73.30
3172;DHT22;1597;51.572;6.992;2023-10-08T13:28:57;16.80;73.90
3172;DHT22;1597;51.572;6.992;2023-10-08T13:31:27;16.80;75.50
3172;DHT22;1597;51.572;6.992;2023-10-08T13:33:53;16.70;66.10
3172;DHT22;1597;51.572;6.992;2023-10-08T13:36:22;16.80;65.70
3172;DHT22;1597;51.572;6.992;2023-10-08T13:38:49;16.70;72.30
3172;DHT22;1597;51.572;6.992;2023-10-08T13:41:17;16.70;74.60
3172;DHT22;1597;51.572;6.992;2023-10-08T13:43:45;16.70;74.50
3172;DHT22;1597;51.572;6.992;2023-10-08T13:46:15;16.70;78.90
3172;DHT22;1597;51.572;6.992;2023-10-08T13:48:47;16.60;81.20
3172;DHT22;1597;51.572;6.992;2023-10-08T13:51:22;16.70;87.50
3172;DHT22;1597;51.572;6.992;2023-10-08T13:53:55;16.70;90.70
3172;DHT22;1597;51.572;6.992;2023-10-08T13:56:26;16.70;92.30
3172;DHT22;1597;51.572;6.992;2023-10-08T13:58:53;16.70;93.60
3172;DHT22;1597;51.572;6.992;2023-10-08T14:01:39;16.60;93.60
3172;DHT22;1597;51.572;6.992;2023-10-08T14:04:12;16.70;96.20
3172;DHT22;1597;51.572;6.992;2023-10-08T14:06:42;16.70;97.10
3172;DHT22;1597;51.572;6.992;2023-10-08T14:09:13;16.70;96.00
3172;DHT22;1597;51.572;6.992;2023-10-08T14:11:50;16.70;96.20
3172;DHT22;1597;51.572;6.992;2023-10-08T14:14:19;16.70;97.00
3172;DHT22;1597;51.572;6.992;2023-10-08T14:16:46;16.70;96.90
3172;DHT22;1597;51.572;6.992;2023-10-08T14:19:18;16.70;96.70
3172;DHT22;1597;51.572;6.992;2023-10-08T14:21:49;16.70;96.40
3172;DHT22;1597;51.572;6.992;2023-10-08T14:24:20;16.70;97.80
3172;DHT22;1597;51.572;6.992;2023-10-08T14:26:46;16.70;98.10
3172;DHT22;1597;51.572;6.992;2023-10-08T14:29:18;16.60;98.90
3172;DHT22;1597;51.572;6.992;2023-10-08T14:31:44;16.70;97.60
3172;DHT22;1597;51.572;6.992;2023-10-08T14:34:15;16.70;98.00
3172;DHT22;1597;51.572;6.992;2023-10-08T14:36:41;16.70;98.40
3172;DHT22;1597;51.572;6.992;2023-10-08T14:39:26;16.70;99.30
3172;DHT22;1597;51.572;6.992;2023-10-08T14:42:10;16.70;99.90
3172;DHT22;1597;51.572;6.992;2023-10-08T14:44:54;16.80;99.50
3172;DHT22;1597;51.572;6.992;2023-10-08T14:47:20;16.80;98.40
3172;DHT22;1597;51.572;6.992;2023-10-08T14:49:46;16.80;97.70
3172;DHT22;1597;51.572;6.992;2023-10-08T14:52:12;16.70;98.00
3172;DHT22;1597;51.572;6.992;2023-10-08T14:54:38;16.70;99.00
3172;DHT22;1597;51.572;6.992;2023-10-08T14:57:04;16.70;98.50
3172;DHT22;1597;51.572;6.992;2023-10-08T14:59:32;16.70;98.30
3172;DHT22;1597;51.572;6.992;2023-10-08T15:01:58;16.80;98.30
3172;DHT22;1597;51.572;6.992;2023-10-08T15:04:24;16.80;99.20
3172;DHT22;1597;51.572;6.992;2023-10-08T15:06:57;16.50;97.40
3172;DHT22;1597;51.572;6.992;2023-10-08T15:09:23;16.70;98.20
3172;DHT22;1597;51.572;6.992;2023-10-08T15:11:53;16.70;97.90
3172;DHT22;1597;51.572;6.992;2023-10-08T15:14:20;16.70;97.70
3172;DHT22;1597;51.572;6.992;2023-10-08T15:16:48;16.60;98.00
3172;DHT22;1597;51.572;6.992;2023-10-08T15:19:21;16.60;98.70
3172;DHT22;1597;51.572;6.992;2023-10-08T15:21:48;16.60;99.60
3172;DHT22;1597;51.572;6.992;2023-10-08T15:24:17;16.70;99.40
3172;DHT22;1597;51.572;6.992;2023-10-08T15:26:44;16.70;99.00
3172;DHT22;1597;51.572;6.992;2023-10-08T15:29:10;16.70;98.50
3172;DHT22;1597;51.572;6.992;2023-10-08T15:31:38;16.70;98.10
3172;DHT22;1597;51.572;6.992;2023-10-08T15:34:06;16.60;98.20
3172;DHT22;1597;51.572;6.992;2023-10-08T15:36:32;16.60;98.70
3172;DHT22;1597;51.572;6.992;2023-10-08T15:38:59;16.60;98.90
3172;DHT22;1597;51.572;6.992;2023-10-08T15:41:24;16.60;99.20
3172;DHT22;1597;51.572;6.992;2023-10-08T15:43:51;16.60;99.50
3172;DHT22;1597;51.572;6.992;2023-10-08T15:46:19;16.60;99.90
3172;DHT22;1597;51.572;6.992;2023-10-08T15:48:46;16.70;99.90
3172;DHT22;1597;51.572;6.992;2023-10-08T15:51:12;16.60;99.90
3172;DHT22;1597;51.572;6.992;2023-10-08T15:53:38;16.60;98.80
3172;DHT22;1597;51.572;6.992;2023-10-08T15:56:05;16.60;99.90
3172;DHT22;1597;51.572;6.992;2023-10-08T15:58:31;16.50;99.90
3172;DHT22;1597;51.572;6.992;2023-10-08T16:00:56;16.60;99.90
3172;DHT22;1597;51.572;6.992;2023-10-08T16:03:22;16.60;99.90
3172;DHT22;1597;51.572;6.992;2023-10-08T16:05:48;16.00;99.90
3172;DHT22;1597;51.572;6.992;2023-10-08T16:08:14;16.60;99.90
3172;DHT22;1597;51.572;6.992;2023-10-08T16:10:40;16.60;99.90
3172;DHT22;1597;51.572;6.992;2023-10-08T16:13:06;16.50;99.90
3172;DHT22;1597;51.572;6.992;2023-10-08T16:15:34;16.60;99.90
3172;DHT22;1597;51.572;6.992;2023-10-08T16:18:01;16.60;99.90
3172;DHT22;1597;51.572;6.992;2023-10-08T16:20:29;16.50;99.90
3172;DHT22;1597;51.572;6.992;2023-10-08T16:22:56;16.50;99.90
3172;DHT22;1597;51.572;6.992;2023-10-08T16:25:23;16.50;99.90
3172;DHT22;1597;51.572;6.992;2023-10-08T16:27:50;16.40;99.90
3172;DHT22;1597;51.572;6.992;2023-10-08T16:30:24;16.40;99.90
3172;DHT22;1597;51.572;6.992;2023-10-08T16:32:57;16.40;99.90
3172;DHT22;1597;51.572;6.992;2023-10-08T16:35:24;16.40;99.90